CMB836 Details

Departure: Kuwait International Airport (OKBK)
Arrival: Ramstein Air Force Base (ETAR)
Route: RALKA3F RALKA G795 TASMI L602 ALPET UM860 SRT UG8 ULSAB UT334 INB UL746 ODERO T86 MATEL T746 NEPOT L746 EVRIK L850 BUDOP LAMSI L604 SULUS L984 FFM
Notes: USTRANSCOM CONTRACT FLIGHT


Current Weather Information
OKBK 260000Z 19014KT 4500 -DU SCT040 OVC080 22/16 Q1004 NOSIG
ETAR 252356Z AUTO 00000KT 9999 BKN050 04/02 A3036 RMK AO2 RAB11E21DZB21E22 SLP291 P0000 60005 T00360015 10047 20035 52014 $